sensor_id;sensor_type;location;lat;lon;timestamp;P1;durP1;ratioP1;P2;durP2;ratioP2
32295;SDS011;18781;51.550;5.418;2023-08-30T00:02:04;10.18;;;7.53;;
32295;SDS011;18781;51.550;5.418;2023-08-30T00:04:30;13.93;;;8.82;;
32295;SDS011;18781;51.550;5.418;2023-08-30T00:06:55;12.95;;;7.90;;
32295;SDS011;18781;51.550;5.418;2023-08-30T00:09:21;10.43;;;8.13;;
32295;SDS011;18781;51.550;5.418;2023-08-30T00:11:46;13.23;;;8.48;;
32295;SDS011;18781;51.550;5.418;2023-08-30T00:14:12;12.95;;;7.80;;
32295;SDS011;18781;51.550;5.418;2023-08-30T00:16:38;12.15;;;7.82;;
32295;SDS011;18781;51.550;5.418;2023-08-30T00:19:03;11.63;;;8.02;;
32295;SDS011;18781;51.550;5.418;2023-08-30T00:21:29;11.80;;;7.85;;
32295;SDS011;18781;51.550;5.418;2023-08-30T00:23:55;13.25;;;8.50;;
32295;SDS011;18781;51.550;5.418;2023-08-30T00:26:21;11.43;;;8.25;;
32295;SDS011;18781;51.550;5.418;2023-08-30T00:28:46;11.43;;;7.88;;
32295;SDS011;18781;51.550;5.418;2023-08-30T00:31:12;12.65;;;8.55;;
32295;SDS011;18781;51.550;5.418;2023-08-30T00:33:37;10.07;;;7.40;;
32295;SDS011;18781;51.550;5.418;2023-08-30T00:36:03;13.02;;;9.07;;
32295;SDS011;18781;51.550;5.418;2023-08-30T00:38:29;11.43;;;8.27;;
32295;SDS011;18781;51.550;5.418;2023-08-30T00:40:55;14.85;;;8.43;;
32295;SDS011;18781;51.550;5.418;2023-08-30T00:43:21;14.90;;;9.27;;
32295;SDS011;18781;51.550;5.418;2023-08-30T00:45:47;16.42;;;9.05;;
32295;SDS011;18781;51.550;5.418;2023-08-30T00:48:13;13.13;;;8.50;;
32295;SDS011;18781;51.550;5.418;2023-08-30T00:50:40;12.77;;;8.93;;
32295;SDS011;18781;51.550;5.418;2023-08-30T00:53:07;10.82;;;8.50;;
32295;SDS011;18781;51.550;5.418;2023-08-30T00:55:34;15.32;;;8.75;;
32295;SDS011;18781;51.550;5.418;2023-08-30T00:58:00;14.25;;;9.00;;
32295;SDS011;18781;51.550;5.418;2023-08-30T01:00:30;13.52;;;8.93;;
32295;SDS011;18781;51.550;5.418;2023-08-30T01:02:56;14.43;;;9.18;;
32295;SDS011;18781;51.550;5.418;2023-08-30T01:05:22;15.90;;;9.20;;
32295;SDS011;18781;51.550;5.418;2023-08-30T01:07:48;12.32;;;8.43;;
32295;SDS011;18781;51.550;5.418;2023-08-30T01:10:14;12.43;;;9.00;;
32295;SDS011;18781;51.550;5.418;2023-08-30T01:12:41;13.73;;;9.32;;
32295;SDS011;18781;51.550;5.418;2023-08-30T01:15:21;13.98;;;8.65;;
32295;SDS011;18781;51.550;5.418;2023-08-30T01:17:48;12.75;;;8.98;;
32295;SDS011;18781;51.550;5.418;2023-08-30T01:20:16;15.93;;;9.07;;
32295;SDS011;18781;51.550;5.418;2023-08-30T01:28:15;15.93;;;9.75;;
32295;SDS011;18781;51.550;5.418;2023-08-30T01:30:44;12.75;;;9.10;;
32295;SDS011;18781;51.550;5.418;2023-08-30T01:33:10;14.48;;;9.35;;
32295;SDS011;18781;51.550;5.418;2023-08-30T01:35:38;14.15;;;9.52;;
32295;SDS011;18781;51.550;5.418;2023-08-30T01:38:05;12.52;;;8.73;;
32295;SDS011;18781;51.550;5.418;2023-08-30T01:40:36;14.93;;;9.32;;
32295;SDS011;18781;51.550;5.418;2023-08-30T01:43:04;13.52;;;9.65;;
32295;SDS011;18781;51.550;5.418;2023-08-30T01:45:41;13.60;;;9.30;;
32295;SDS011;18781;51.550;5.418;2023-08-30T01:48:12;16.75;;;9.43;;
32295;SDS011;18781;51.550;5.418;2023-08-30T01:50:39;15.57;;;9.07;;
32295;SDS011;18781;51.550;5.418;2023-08-30T01:53:07;14.68;;;9.55;;
32295;SDS011;18781;51.550;5.418;2023-08-30T01:55:34;12.77;;;9.27;;
32295;SDS011;18781;51.550;5.418;2023-08-30T01:58:01;18.30;;;9.93;;
32295;SDS011;18781;51.550;5.418;2023-08-30T02:00:27;11.60;;;8.85;;
32295;SDS011;18781;51.550;5.418;2023-08-30T02:02:52;17.13;;;9.80;;
32295;SDS011;18781;51.550;5.418;2023-08-30T02:05:18;13.98;;;9.43;;
32295;SDS011;18781;51.550;5.418;2023-08-30T02:10:28;13.07;;;9.32;;
32295;SDS011;18781;51.550;5.418;2023-08-30T02:12:58;14.07;;;8.95;;
32295;SDS011;18781;51.550;5.418;2023-08-30T02:15:25;13.27;;;9.10;;
32295;SDS011;18781;51.550;5.418;2023-08-30T02:17:52;13.02;;;9.20;;
32295;SDS011;18781;51.550;5.418;2023-08-30T02:20:19;16.05;;;9.00;;
32295;SDS011;18781;51.550;5.418;2023-08-30T02:22:44;12.90;;;9.10;;
32295;SDS011;18781;51.550;5.418;2023-08-30T02:25:10;14.23;;;9.25;;
32295;SDS011;18781;51.550;5.418;2023-08-30T02:27:36;14.65;;;9.30;;
32295;SDS011;18781;51.550;5.418;2023-08-30T02:30:02;13.88;;;9.65;;
32295;SDS011;18781;51.550;5.418;2023-08-30T02:32:28;13.85;;;8.73;;
32295;SDS011;18781;51.550;5.418;2023-08-30T02:34:53;15.02;;;9.32;;
32295;SDS011;18781;51.550;5.418;2023-08-30T02:37:20;12.95;;;9.07;;
32295;SDS011;18781;51.550;5.418;2023-08-30T02:39:46;15.18;;;10.07;;
32295;SDS011;18781;51.550;5.418;2023-08-30T02:42:12;13.13;;;9.25;;
32295;SDS011;18781;51.550;5.418;2023-08-30T02:44:37;21.45;;;9.57;;
32295;SDS011;18781;51.550;5.418;2023-08-30T02:47:03;12.93;;;9.15;;
32295;SDS011;18781;51.550;5.418;2023-08-30T02:49:28;18.33;;;9.65;;
32295;SDS011;18781;51.550;5.418;2023-08-30T02:51:54;13.65;;;9.00;;
32295;SDS011;18781;51.550;5.418;2023-08-30T02:54:20;13.00;;;8.88;;
32295;SDS011;18781;51.550;5.418;2023-08-30T02:56:47;14.55;;;9.43;;
32295;SDS011;18781;51.550;5.418;2023-08-30T02:59:13;14.07;;;9.70;;
32295;SDS011;18781;51.550;5.418;2023-08-30T03:01:39;16.80;;;9.88;;
32295;SDS011;18781;51.550;5.418;2023-08-30T03:04:05;14.18;;;10.00;;
32295;SDS011;18781;51.550;5.418;2023-08-30T03:06:32;15.65;;;9.90;;
32295;SDS011;18781;51.550;5.418;2023-08-30T03:08:58;14.48;;;9.98;;
32295;SDS011;18781;51.550;5.418;2023-08-30T03:11:24;15.23;;;9.45;;
32295;SDS011;18781;51.550;5.418;2023-08-30T03:13:50;14.63;;;9.73;;
32295;SDS011;18781;51.550;5.418;2023-08-30T03:16:16;14.40;;;9.48;;
32295;SDS011;18781;51.550;5.418;2023-08-30T03:18:42;16.75;;;10.70;;
32295;SDS011;18781;51.550;5.418;2023-08-30T03:21:08;13.40;;;9.90;;
32295;SDS011;18781;51.550;5.418;2023-08-30T03:23:34;12.90;;;9.52;;
32295;SDS011;18781;51.550;5.418;2023-08-30T03:26:09;18.27;;;10.45;;
32295;SDS011;18781;51.550;5.418;2023-08-30T03:28:35;18.05;;;10.38;;
32295;SDS011;18781;51.550;5.418;2023-08-30T03:31:01;14.18;;;10.02;;
32295;SDS011;18781;51.550;5.418;2023-08-30T03:33:26;18.70;;;10.95;;
32295;SDS011;18781;51.550;5.418;2023-08-30T03:35:52;17.27;;;10.07;;
32295;SDS011;18781;51.550;5.418;2023-08-30T03:38:18;17.13;;;11.02;;
32295;SDS011;18781;51.550;5.418;2023-08-30T03:40:44;19.25;;;10.75;;
32295;SDS011;18781;51.550;5.418;2023-08-30T03:43:09;15.82;;;10.57;;
32295;SDS011;18781;51.550;5.418;2023-08-30T03:45:35;20.30;;;11.95;;
32295;SDS011;18781;51.550;5.418;2023-08-30T03:48:01;19.77;;;11.52;;
32295;SDS011;18781;51.550;5.418;2023-08-30T03:50:28;17.90;;;11.63;;
32295;SDS011;18781;51.550;5.418;2023-08-30T03:52:53;15.82;;;11.05;;
32295;SDS011;18781;51.550;5.418;2023-08-30T03:55:19;17.73;;;11.20;;
32295;SDS011;18781;51.550;5.418;2023-08-30T03:57:45;14.77;;;11.07;;
32295;SDS011;18781;51.550;5.418;2023-08-30T04:00:11;19.85;;;11.98;;
32295;SDS011;18781;51.550;5.418;2023-08-30T04:02:37;19.58;;;11.43;;
32295;SDS011;18781;51.550;5.418;2023-08-30T04:05:02;14.35;;;11.07;;
32295;SDS011;18781;51.550;5.418;2023-08-30T04:07:33;14.55;;;10.82;;
32295;SDS011;18781;51.550;5.418;2023-08-30T04:09:58;19.20;;;12.07;;
32295;SDS011;18781;51.550;5.418;2023-08-30T04:12:24;17.77;;;11.35;;
32295;SDS011;18781;51.550;5.418;2023-08-30T04:14:50;18.33;;;11.65;;
32295;SDS011;18781;51.550;5.418;2023-08-30T04:17:15;24.02;;;12.85;;
32295;SDS011;18781;51.550;5.418;2023-08-30T04:19:41;19.73;;;12.35;;
32295;SDS011;18781;51.550;5.418;2023-08-30T04:22:06;18.55;;;11.80;;
32295;SDS011;18781;51.550;5.418;2023-08-30T04:24:32;20.42;;;12.65;;
32295;SDS011;18781;51.550;5.418;2023-08-30T04:26:57;20.98;;;11.65;;
32295;SDS011;18781;51.550;5.418;2023-08-30T04:29:23;24.00;;;12.20;;
32295;SDS011;18781;51.550;5.418;2023-08-30T04:31:49;25.63;;;11.57;;
32295;SDS011;18781;51.550;5.418;2023-08-30T04:34:14;19.25;;;12.20;;
32295;SDS011;18781;51.550;5.418;2023-08-30T04:36:41;19.30;;;12.48;;
32295;SDS011;18781;51.550;5.418;2023-08-30T04:39:06;19.48;;;12.02;;
32295;SDS011;18781;51.550;5.418;2023-08-30T04:41:32;20.50;;;12.65;;
32295;SDS011;18781;51.550;5.418;2023-08-30T04:43:58;19.77;;;11.95;;
32295;SDS011;18781;51.550;5.418;2023-08-30T04:46:24;19.70;;;12.27;;
32295;SDS011;18781;51.550;5.418;2023-08-30T04:48:49;18.42;;;12.48;;
32295;SDS011;18781;51.550;5.418;2023-08-30T04:51:15;18.52;;;12.30;;
32295;SDS011;18781;51.550;5.418;2023-08-30T04:53:41;18.98;;;12.60;;
32295;SDS011;18781;51.550;5.418;2023-08-30T04:56:11;20.20;;;12.00;;
32295;SDS011;18781;51.550;5.418;2023-08-30T04:58:37;17.33;;;12.30;;
32295;SDS011;18781;51.550;5.418;2023-08-30T05:01:04;22.88;;;12.52;;
32295;SDS011;18781;51.550;5.418;2023-08-30T05:03:30;17.67;;;12.68;;
32295;SDS011;18781;51.550;5.418;2023-08-30T05:05:56;24.25;;;12.50;;
32295;SDS011;18781;51.550;5.418;2023-08-30T05:08:21;19.88;;;13.30;;
32295;SDS011;18781;51.550;5.418;2023-08-30T05:10:47;20.95;;;12.38;;
32295;SDS011;18781;51.550;5.418;2023-08-30T05:13:15;18.67;;;12.43;;
32295;SDS011;18781;51.550;5.418;2023-08-30T05:15:41;20.73;;;12.73;;
32295;SDS011;18781;51.550;5.418;2023-08-30T05:18:07;22.60;;;12.15;;
32295;SDS011;18781;51.550;5.418;2023-08-30T05:20:33;21.85;;;12.68;;
32295;SDS011;18781;51.550;5.418;2023-08-30T05:22:58;18.52;;;13.23;;
32295;SDS011;18781;51.550;5.418;2023-08-30T05:25:24;19.75;;;13.05;;
32295;SDS011;18781;51.550;5.418;2023-08-30T05:27:49;20.38;;;12.82;;
32295;SDS011;18781;51.550;5.418;2023-08-30T05:30:15;20.25;;;13.10;;
32295;SDS011;18781;51.550;5.418;2023-08-30T05:32:41;21.33;;;13.25;;
32295;SDS011;18781;51.550;5.418;2023-08-30T05:35:07;18.30;;;12.15;;
32295;SDS011;18781;51.550;5.418;2023-08-30T05:37:32;17.88;;;13.25;;
32295;SDS011;18781;51.550;5.418;2023-08-30T05:39:58;24.67;;;13.38;;
32295;SDS011;18781;51.550;5.418;2023-08-30T05:42:24;20.65;;;12.57;;
32295;SDS011;18781;51.550;5.418;2023-08-30T05:44:49;19.95;;;12.20;;
32295;SDS011;18781;51.550;5.418;2023-08-30T05:47:15;19.85;;;12.55;;
32295;SDS011;18781;51.550;5.418;2023-08-30T05:49:42;22.98;;;12.50;;
32295;SDS011;18781;51.550;5.418;2023-08-30T05:52:07;16.38;;;12.20;;
32295;SDS011;18781;51.550;5.418;2023-08-30T05:54:33;20.30;;;12.88;;
32295;SDS011;18781;51.550;5.418;2023-08-30T05:56:59;19.67;;;12.60;;
32295;SDS011;18781;51.550;5.418;2023-08-30T05:59:25;21.02;;;12.27;;
32295;SDS011;18781;51.550;5.418;2023-08-30T06:01:50;18.05;;;12.15;;
32295;SDS011;18781;51.550;5.418;2023-08-30T06:04:16;17.88;;;11.85;;
32295;SDS011;18781;51.550;5.418;2023-08-30T06:06:41;18.23;;;12.85;;
32295;SDS011;18781;51.550;5.418;2023-08-30T06:09:07;23.00;;;12.95;;
32295;SDS011;18781;51.550;5.418;2023-08-30T06:11:32;20.02;;;12.90;;
32295;SDS011;18781;51.550;5.418;2023-08-30T06:13:58;28.35;;;12.88;;
32295;SDS011;18781;51.550;5.418;2023-08-30T06:16:24;16.00;;;12.80;;
32295;SDS011;18781;51.550;5.418;2023-08-30T06:18:50;22.17;;;12.68;;
32295;SDS011;18781;51.550;5.418;2023-08-30T06:21:16;18.95;;;13.18;;
32295;SDS011;18781;51.550;5.418;2023-08-30T06:23:41;19.10;;;12.70;;
32295;SDS011;18781;51.550;5.418;2023-08-30T06:26:07;20.92;;;12.73;;
32295;SDS011;18781;51.550;5.418;2023-08-30T06:28:33;24.75;;;12.73;;
32295;SDS011;18781;51.550;5.418;2023-08-30T06:30:58;19.75;;;12.23;;
32295;SDS011;18781;51.550;5.418;2023-08-30T06:33:24;17.90;;;12.05;;
32295;SDS011;18781;51.550;5.418;2023-08-30T06:35:50;18.90;;;12.52;;
32295;SDS011;18781;51.550;5.418;2023-08-30T06:38:15;20.05;;;12.13;;
32295;SDS011;18781;51.550;5.418;2023-08-30T06:40:44;20.02;;;12.20;;
32295;SDS011;18781;51.550;5.418;2023-08-30T06:43:10;19.08;;;11.88;;
32295;SDS011;18781;51.550;5.418;2023-08-30T06:45:37;23.73;;;12.77;;
32295;SDS011;18781;51.550;5.418;2023-08-30T06:48:06;22.10;;;13.20;;
32295;SDS011;18781;51.550;5.418;2023-08-30T06:50:35;24.07;;;13.47;;
32295;SDS011;18781;51.550;5.418;2023-08-30T06:53:01;18.85;;;12.80;;
32295;SDS011;18781;51.550;5.418;2023-08-30T06:55:27;20.70;;;13.18;;
32295;SDS011;18781;51.550;5.418;2023-08-30T06:57:53;18.08;;;12.30;;
32295;SDS011;18781;51.550;5.418;2023-08-30T07:00:20;20.00;;;12.00;;
32295;SDS011;18781;51.550;5.418;2023-08-30T07:02:45;20.30;;;13.50;;
32295;SDS011;18781;51.550;5.418;2023-08-30T07:05:14;20.90;;;12.85;;
32295;SDS011;18781;51.550;5.418;2023-08-30T07:07:39;22.15;;;13.43;;
32295;SDS011;18781;51.550;5.418;2023-08-30T07:10:05;21.27;;;13.43;;
32295;SDS011;18781;51.550;5.418;2023-08-30T07:12:31;19.10;;;12.75;;
32295;SDS011;18781;51.550;5.418;2023-08-30T07:14:57;19.70;;;12.23;;
32295;SDS011;18781;51.550;5.418;2023-08-30T07:17:22;19.88;;;11.98;;
32295;SDS011;18781;51.550;5.418;2023-08-30T07:19:48;25.30;;;12.02;;
32295;SDS011;18781;51.550;5.418;2023-08-30T07:22:14;21.35;;;13.05;;
32295;SDS011;18781;51.550;5.418;2023-08-30T07:24:43;21.55;;;12.63;;
32295;SDS011;18781;51.550;5.418;2023-08-30T07:27:09;22.00;;;12.30;;
32295;SDS011;18781;51.550;5.418;2023-08-30T07:29:36;16.80;;;11.57;;
32295;SDS011;18781;51.550;5.418;2023-08-30T07:32:01;22.98;;;12.68;;
32295;SDS011;18781;51.550;5.418;2023-08-30T07:34:27;18.17;;;10.77;;
32295;SDS011;18781;51.550;5.418;2023-08-30T07:36:53;16.25;;;11.45;;
32295;SDS011;18781;51.550;5.418;2023-08-30T07:39:20;15.43;;;10.77;;
32295;SDS011;18781;51.550;5.418;2023-08-30T07:41:46;18.63;;;10.85;;
32295;SDS011;18781;51.550;5.418;2023-08-30T07:44:12;15.05;;;9.85;;
32295;SDS011;18781;51.550;5.418;2023-08-30T07:46:37;14.93;;;10.25;;
32295;SDS011;18781;51.550;5.418;2023-08-30T07:49:03;14.70;;;9.85;;
32295;SDS011;18781;51.550;5.418;2023-08-30T07:51:28;16.77;;;9.68;;
32295;SDS011;18781;51.550;5.418;2023-08-30T07:53:54;13.88;;;9.10;;
32295;SDS011;18781;51.550;5.418;2023-08-30T07:56:19;14.38;;;9.40;;
32295;SDS011;18781;51.550;5.418;2023-08-30T07:58:45;16.48;;;9.05;;
32295;SDS011;18781;51.550;5.418;2023-08-30T08:01:11;12.85;;;8.93;;
32295;SDS011;18781;51.550;5.418;2023-08-30T08:03:36;11.25;;;8.10;;
32295;SDS011;18781;51.550;5.418;2023-08-30T08:06:02;13.07;;;8.68;;
32295;SDS011;18781;51.550;5.418;2023-08-30T08:08:28;12.15;;;8.45;;
32295;SDS011;18781;51.550;5.418;2023-08-30T08:10:54;11.95;;;7.85;;
32295;SDS011;18781;51.550;5.418;2023-08-30T08:13:20;11.85;;;8.20;;
32295;SDS011;18781;51.550;5.418;2023-08-30T08:15:45;9.55;;;7.25;;
32295;SDS011;18781;51.550;5.418;2023-08-30T08:18:11;11.52;;;7.03;;
32295;SDS011;18781;51.550;5.418;2023-08-30T08:20:37;10.27;;;6.90;;
32295;SDS011;18781;51.550;5.418;2023-08-30T08:23:04;11.32;;;7.22;;
32295;SDS011;18781;51.550;5.418;2023-08-30T08:25:29;12.13;;;6.22;;
32295;SDS011;18781;51.550;5.418;2023-08-30T08:27:55;16.33;;;6.75;;
32295;SDS011;18781;51.550;5.418;2023-08-30T08:30:20;11.15;;;7.28;;
32295;SDS011;18781;51.550;5.418;2023-08-30T08:32:47;9.63;;;6.03;;
32295;SDS011;18781;51.550;5.418;2023-08-30T08:35:13;9.50;;;6.38;;
32295;SDS011;18781;51.550;5.418;2023-08-30T08:37:39;8.95;;;5.88;;
32295;SDS011;18781;51.550;5.418;2023-08-30T08:40:05;7.18;;;5.63;;
32295;SDS011;18781;51.550;5.418;2023-08-30T08:42:33;12.50;;;5.77;;
32295;SDS011;18781;51.550;5.418;2023-08-30T08:45:00;8.68;;;5.82;;
32295;SDS011;18781;51.550;5.418;2023-08-30T08:47:27;10.52;;;5.68;;
32295;SDS011;18781;51.550;5.418;2023-08-30T08:49:55;9.35;;;5.45;;
32295;SDS011;18781;51.550;5.418;2023-08-30T08:52:21;6.85;;;5.18;;
32295;SDS011;18781;51.550;5.418;2023-08-30T08:54:49;7.25;;;4.90;;
32295;SDS011;18781;51.550;5.418;2023-08-30T08:57:15;12.40;;;5.28;;
32295;SDS011;18781;51.550;5.418;2023-08-30T08:59:42;9.98;;;5.90;;
32295;SDS011;18781;51.550;5.418;2023-08-30T09:02:09;8.45;;;5.25;;
32295;SDS011;18781;51.550;5.418;2023-08-30T09:04:38;8.80;;;5.50;;
32295;SDS011;18781;51.550;5.418;2023-08-30T09:07:04;10.50;;;5.13;;
32295;SDS011;18781;51.550;5.418;2023-08-30T09:09:30;7.68;;;5.00;;
32295;SDS011;18781;51.550;5.418;2023-08-30T09:11:56;7.07;;;5.18;;
32295;SDS011;18781;51.550;5.418;2023-08-30T09:14:21;7.38;;;5.65;;
32295;SDS011;18781;51.550;5.418;2023-08-30T09:17:01;9.88;;;5.30;;
32295;SDS011;18781;51.550;5.418;2023-08-30T09:19:27;10.35;;;5.28;;
32295;SDS011;18781;51.550;5.418;2023-08-30T09:21:54;11.63;;;5.72;;
32295;SDS011;18781;51.550;5.418;2023-08-30T09:24:20;8.05;;;5.80;;
32295;SDS011;18781;51.550;5.418;2023-08-30T09:26:47;10.45;;;6.53;;
32295;SDS011;18781;51.550;5.418;2023-08-30T09:29:15;8.32;;;6.43;;
32295;SDS011;18781;51.550;5.418;2023-08-30T09:31:42;7.67;;;6.17;;
32295;SDS011;18781;51.550;5.418;2023-08-30T09:34:08;8.80;;;5.95;;
32295;SDS011;18781;51.550;5.418;2023-08-30T09:36:36;8.77;;;5.70;;
32295;SDS011;18781;51.550;5.418;2023-08-30T09:39:03;9.02;;;6.20;;
32295;SDS011;18781;51.550;5.418;2023-08-30T09:41:32;9.95;;;6.10;;
32295;SDS011;18781;51.550;5.418;2023-08-30T09:43:58;8.13;;;6.20;;
32295;SDS011;18781;51.550;5.418;2023-08-30T09:46:25;11.98;;;6.57;;
32295;SDS011;18781;51.550;5.418;2023-08-30T09:48:51;8.70;;;7.50;;
32295;SDS011;18781;51.550;5.418;2023-08-30T09:51:18;9.27;;;6.72;;
32295;SDS011;18781;51.550;5.418;2023-08-30T09:53:49;10.60;;;7.47;;
32295;SDS011;18781;51.550;5.418;2023-08-30T09:58:44;11.30;;;7.95;;
32295;SDS011;18781;51.550;5.418;2023-08-30T10:01:10;15.07;;;8.40;;
32295;SDS011;18781;51.550;5.418;2023-08-30T10:03:36;11.07;;;9.25;;
32295;SDS011;18781;51.550;5.418;2023-08-30T10:06:02;11.65;;;8.93;;
32295;SDS011;18781;51.550;5.418;2023-08-30T10:08:30;13.15;;;10.45;;
32295;SDS011;18781;51.550;5.418;2023-08-30T10:10:59;12.65;;;9.30;;
32295;SDS011;18781;51.550;5.418;2023-08-30T10:13:25;11.25;;;9.38;;
32295;SDS011;18781;51.550;5.418;2023-08-30T10:15:51;14.10;;;9.18;;
32295;SDS011;18781;51.550;5.418;2023-08-30T10:18:25;11.63;;;9.80;;
32295;SDS011;18781;51.550;5.418;2023-08-30T10:23:20;10.82;;;9.57;;
32295;SDS011;18781;51.550;5.418;2023-08-30T10:25:46;11.75;;;10.23;;
32295;SDS011;18781;51.550;5.418;2023-08-30T10:28:15;19.08;;;9.98;;
32295;SDS011;18781;51.550;5.418;2023-08-30T10:30:42;12.15;;;9.70;;
32295;SDS011;18781;51.550;5.418;2023-08-30T10:33:12;10.40;;;9.30;;
32295;SDS011;18781;51.550;5.418;2023-08-30T10:35:46;11.48;;;9.88;;
32295;SDS011;18781;51.550;5.418;2023-08-30T10:38:26;13.35;;;10.23;;
32295;SDS011;18781;51.550;5.418;2023-08-30T10:40:53;12.88;;;9.85;;
32295;SDS011;18781;51.550;5.418;2023-08-30T10:43:27;13.68;;;9.68;;
32295;SDS011;18781;51.550;5.418;2023-08-30T10:45:59;10.55;;;9.20;;
32295;SDS011;18781;51.550;5.418;2023-08-30T10:48:33;12.52;;;9.57;;
32295;SDS011;18781;51.550;5.418;2023-08-30T10:51:00;10.35;;;9.13;;
32295;SDS011;18781;51.550;5.418;2023-08-30T10:53:29;11.20;;;8.00;;
32295;SDS011;18781;51.550;5.418;2023-08-30T10:56:11;11.23;;;7.30;;
32295;SDS011;18781;51.550;5.418;2023-08-30T10:58:43;9.75;;;7.55;;
32295;SDS011;18781;51.550;5.418;2023-08-30T11:01:09;9.52;;;8.00;;
32295;SDS011;18781;51.550;5.418;2023-08-30T11:03:37;11.10;;;8.02;;
32295;SDS011;18781;51.550;5.418;2023-08-30T11:06:03;10.82;;;7.70;;
32295;SDS011;18781;51.550;5.418;2023-08-30T11:08:29;9.80;;;6.85;;
32295;SDS011;18781;51.550;5.418;2023-08-30T11:11:04;9.32;;;7.30;;
32295;SDS011;18781;51.550;5.418;2023-08-30T11:13:31;9.52;;;6.85;;
32295;SDS011;18781;51.550;5.418;2023-08-30T11:16:00;10.82;;;6.30;;
32295;SDS011;18781;51.550;5.418;2023-08-30T11:18:28;6.93;;;4.85;;
32295;SDS011;18781;51.550;5.418;2023-08-30T11:20:57;12.40;;;4.65;;
32295;SDS011;18781;51.550;5.418;2023-08-30T11:23:27;7.70;;;4.00;;
32295;SDS011;18781;51.550;5.418;2023-08-30T11:25:53;7.78;;;4.03;;
32295;SDS011;18781;51.550;5.418;2023-08-30T11:28:25;12.95;;;4.40;;
32295;SDS011;18781;51.550;5.418;2023-08-30T11:30:54;10.23;;;3.60;;
32295;SDS011;18781;51.550;5.418;2023-08-30T11:35:46;13.55;;;3.90;;
32295;SDS011;18781;51.550;5.418;2023-08-30T11:38:15;13.02;;;3.72;;
32295;SDS011;18781;51.550;5.418;2023-08-30T11:40:40;11.82;;;3.97;;
32295;SDS011;18781;51.550;5.418;2023-08-30T11:43:06;14.43;;;3.97;;
32295;SDS011;18781;51.550;5.418;2023-08-30T11:45:32;14.30;;;4.10;;
32295;SDS011;18781;51.550;5.418;2023-08-30T11:47:59;10.23;;;3.67;;
32295;SDS011;18781;51.550;5.418;2023-08-30T11:50:26;14.38;;;3.92;;
32295;SDS011;18781;51.550;5.418;2023-08-30T11:52:52;14.95;;;3.83;;
32295;SDS011;18781;51.550;5.418;2023-08-30T11:55:18;11.95;;;3.70;;
32295;SDS011;18781;51.550;5.418;2023-08-30T11:57:50;13.10;;;4.63;;
32295;SDS011;18781;51.550;5.418;2023-08-30T12:00:19;17.30;;;4.80;;
32295;SDS011;18781;51.550;5.418;2023-08-30T12:02:45;16.17;;;3.72;;
32295;SDS011;18781;51.550;5.418;2023-08-30T12:05:14;10.85;;;3.17;;
32295;SDS011;18781;51.550;5.418;2023-08-30T12:07:41;12.00;;;3.90;;
32295;SDS011;18781;51.550;5.418;2023-08-30T12:10:10;12.65;;;4.10;;
32295;SDS011;18781;51.550;5.418;2023-08-30T12:12:36;15.93;;;4.13;;
32295;SDS011;18781;51.550;5.418;2023-08-30T12:15:11;12.15;;;3.80;;
32295;SDS011;18781;51.550;5.418;2023-08-30T12:17:38;18.77;;;3.60;;
32295;SDS011;18781;51.550;5.418;2023-08-30T12:20:03;21.08;;;3.97;;
32295;SDS011;18781;51.550;5.418;2023-08-30T12:25:02;18.08;;;4.20;;
32295;SDS011;18781;51.550;5.418;2023-08-30T12:27:28;12.57;;;3.63;;
32295;SDS011;18781;51.550;5.418;2023-08-30T12:29:55;19.08;;;4.00;;
32295;SDS011;18781;51.550;5.418;2023-08-30T12:32:20;14.88;;;3.65;;
32295;SDS011;18781;51.550;5.418;2023-08-30T12:34:46;14.98;;;3.95;;
32295;SDS011;18781;51.550;5.418;2023-08-30T12:37:11;15.70;;;4.05;;
32295;SDS011;18781;51.550;5.418;2023-08-30T12:39:37;13.25;;;3.10;;
32295;SDS011;18781;51.550;5.418;2023-08-30T12:42:03;12.13;;;3.55;;
32295;SDS011;18781;51.550;5.418;2023-08-30T12:44:29;15.95;;;3.20;;
32295;SDS011;18781;51.550;5.418;2023-08-30T12:46:54;18.60;;;3.28;;
32295;SDS011;18781;51.550;5.418;2023-08-30T12:49:20;9.32;;;3.30;;
32295;SDS011;18781;51.550;5.418;2023-08-30T12:51:46;9.00;;;2.78;;
32295;SDS011;18781;51.550;5.418;2023-08-30T12:54:11;11.95;;;3.38;;
32295;SDS011;18781;51.550;5.418;2023-08-30T12:56:37;17.45;;;3.67;;
32295;SDS011;18781;51.550;5.418;2023-08-30T12:59:02;10.20;;;3.00;;
32295;SDS011;18781;51.550;5.418;2023-08-30T13:01:28;13.30;;;3.45;;
32295;SDS011;18781;51.550;5.418;2023-08-30T13:03:53;10.30;;;2.72;;
32295;SDS011;18781;51.550;5.418;2023-08-30T13:06:19;7.68;;;2.78;;
32295;SDS011;18781;51.550;5.418;2023-08-30T13:08:45;11.35;;;2.85;;
32295;SDS011;18781;51.550;5.418;2023-08-30T13:11:10;8.35;;;2.90;;
32295;SDS011;18781;51.550;5.418;2023-08-30T13:13:36;13.07;;;3.13;;
32295;SDS011;18781;51.550;5.418;2023-08-30T13:16:01;9.43;;;2.80;;
32295;SDS011;18781;51.550;5.418;2023-08-30T13:18:28;8.95;;;2.92;;
32295;SDS011;18781;51.550;5.418;2023-08-30T13:20:54;16.10;;;3.17;;
32295;SDS011;18781;51.550;5.418;2023-08-30T13:23:20;13.48;;;2.78;;
32295;SDS011;18781;51.550;5.418;2023-08-30T13:25:45;13.00;;;2.72;;
32295;SDS011;18781;51.550;5.418;2023-08-30T13:28:13;11.52;;;3.03;;
32295;SDS011;18781;51.550;5.418;2023-08-30T13:30:45;14.32;;;3.20;;
32295;SDS011;18781;51.550;5.418;2023-08-30T13:33:11;16.25;;;3.20;;
32295;SDS011;18781;51.550;5.418;2023-08-30T13:35:40;13.13;;;2.97;;
32295;SDS011;18781;51.550;5.418;2023-08-30T13:38:05;15.87;;;2.67;;
32295;SDS011;18781;51.550;5.418;2023-08-30T13:40:31;12.15;;;2.58;;
32295;SDS011;18781;51.550;5.418;2023-08-30T13:42:56;11.88;;;2.80;;
32295;SDS011;18781;51.550;5.418;2023-08-30T13:45:22;11.25;;;2.88;;
32295;SDS011;18781;51.550;5.418;2023-08-30T13:47:48;10.73;;;2.42;;
32295;SDS011;18781;51.550;5.418;2023-08-30T13:50:16;12.80;;;2.72;;
32295;SDS011;18781;51.550;5.418;2023-08-30T13:52:42;13.77;;;3.03;;
32295;SDS011;18781;51.550;5.418;2023-08-30T13:55:08;12.07;;;2.72;;
32295;SDS011;18781;51.550;5.418;2023-08-30T13:57:33;14.55;;;2.88;;
32295;SDS011;18781;51.550;5.418;2023-08-30T13:59:59;9.82;;;2.63;;
32295;SDS011;18781;51.550;5.418;2023-08-30T14:02:28;10.63;;;2.67;;
32295;SDS011;18781;51.550;5.418;2023-08-30T14:04:53;14.70;;;2.63;;
32295;SDS011;18781;51.550;5.418;2023-08-30T14:07:19;10.88;;;2.15;;
32295;SDS011;18781;51.550;5.418;2023-08-30T14:09:44;10.43;;;2.40;;
32295;SDS011;18781;51.550;5.418;2023-08-30T14:12:10;11.93;;;2.30;;
32295;SDS011;18781;51.550;5.418;2023-08-30T14:14:36;9.30;;;2.08;;
32295;SDS011;18781;51.550;5.418;2023-08-30T14:17:01;9.93;;;2.35;;
32295;SDS011;18781;51.550;5.418;2023-08-30T14:19:27;13.30;;;2.83;;
32295;SDS011;18781;51.550;5.418;2023-08-30T14:21:52;11.80;;;2.30;;
32295;SDS011;18781;51.550;5.418;2023-08-30T14:24:20;10.10;;;2.20;;
32295;SDS011;18781;51.550;5.418;2023-08-30T14:26:46;12.38;;;2.30;;
32295;SDS011;18781;51.550;5.418;2023-08-30T14:29:12;12.52;;;2.20;;
32295;SDS011;18781;51.550;5.418;2023-08-30T14:31:37;8.75;;;2.20;;
32295;SDS011;18781;51.550;5.418;2023-08-30T14:34:03;8.32;;;2.10;;
32295;SDS011;18781;51.550;5.418;2023-08-30T14:36:28;9.18;;;2.03;;
32295;SDS011;18781;51.550;5.418;2023-08-30T14:38:54;9.77;;;2.15;;
32295;SDS011;18781;51.550;5.418;2023-08-30T14:41:20;7.93;;;1.88;;
32295;SDS011;18781;51.550;5.418;2023-08-30T14:43:45;8.77;;;2.00;;
32295;SDS011;18781;51.550;5.418;2023-08-30T14:46:11;8.30;;;1.92;;
32295;SDS011;18781;51.550;5.418;2023-08-30T14:48:37;12.30;;;2.40;;